sensor_id;sensor_type;location;lat;lon;timestamp;P1;durP1;ratioP1;P2;durP2;ratioP2
20884;SDS011;10602;48.000;9.654;2023-06-26T00:01:28;10.00;;;8.13;;
20884;SDS011;10602;48.000;9.654;2023-06-26T00:03:57;9.17;;;8.07;;
20884;SDS011;10602;48.000;9.654;2023-06-26T00:06:25;11.27;;;8.30;;
20884;SDS011;10602;48.000;9.654;2023-06-26T00:08:53;10.53;;;7.43;;
20884;SDS011;10602;48.000;9.654;2023-06-26T00:11:21;8.70;;;7.47;;
20884;SDS011;10602;48.000;9.654;2023-06-26T00:13:50;7.17;;;6.47;;
20884;SDS011;10602;48.000;9.654;2023-06-26T00:16:17;8.47;;;7.53;;
20884;SDS011;10602;48.000;9.654;2023-06-26T00:18:45;7.67;;;6.57;;
20884;SDS011;10602;48.000;9.654;2023-06-26T00:21:12;8.53;;;7.07;;
20884;SDS011;10602;48.000;9.654;2023-06-26T00:23:40;7.50;;;6.50;;
20884;SDS011;10602;48.000;9.654;2023-06-26T00:26:07;7.37;;;6.30;;
20884;SDS011;10602;48.000;9.654;2023-06-26T00:28:36;8.23;;;6.03;;
20884;SDS011;10602;48.000;9.654;2023-06-26T00:31:03;9.13;;;6.87;;
20884;SDS011;10602;48.000;9.654;2023-06-26T00:33:31;7.77;;;6.47;;
20884;SDS011;10602;48.000;9.654;2023-06-26T00:35:58;10.03;;;6.67;;
20884;SDS011;10602;48.000;9.654;2023-06-26T00:38:26;7.57;;;6.40;;
20884;SDS011;10602;48.000;9.654;2023-06-26T00:40:55;8.20;;;6.80;;
20884;SDS011;10602;48.000;9.654;2023-06-26T00:43:23;8.53;;;7.07;;
20884;SDS011;10602;48.000;9.654;2023-06-26T00:45:50;9.07;;;6.67;;
20884;SDS011;10602;48.000;9.654;2023-06-26T00:48:18;8.73;;;7.17;;
20884;SDS011;10602;48.000;9.654;2023-06-26T00:50:46;8.23;;;7.07;;
20884;SDS011;10602;48.000;9.654;2023-06-26T00:53:14;8.30;;;7.13;;
20884;SDS011;10602;48.000;9.654;2023-06-26T00:55:41;8.97;;;7.57;;
20884;SDS011;10602;48.000;9.654;2023-06-26T00:58:10;8.07;;;7.20;;
20884;SDS011;10602;48.000;9.654;2023-06-26T01:00:38;8.77;;;7.37;;
20884;SDS011;10602;48.000;9.654;2023-06-26T01:03:09;7.93;;;7.13;;
20884;SDS011;10602;48.000;9.654;2023-06-26T01:05:37;8.70;;;7.40;;
20884;SDS011;10602;48.000;9.654;2023-06-26T01:08:04;9.00;;;7.13;;
20884;SDS011;10602;48.000;9.654;2023-06-26T01:10:32;9.03;;;7.87;;
20884;SDS011;10602;48.000;9.654;2023-06-26T01:13:00;8.60;;;7.63;;
20884;SDS011;10602;48.000;9.654;2023-06-26T01:15:27;9.07;;;7.50;;
20884;SDS011;10602;48.000;9.654;2023-06-26T01:17:55;8.73;;;7.40;;
20884;SDS011;10602;48.000;9.654;2023-06-26T01:20:25;10.53;;;7.87;;
20884;SDS011;10602;48.000;9.654;2023-06-26T01:23:03;8.93;;;7.07;;
20884;SDS011;10602;48.000;9.654;2023-06-26T01:28:36;9.43;;;7.63;;
20884;SDS011;10602;48.000;9.654;2023-06-26T01:31:07;10.13;;;7.33;;
20884;SDS011;10602;48.000;9.654;2023-06-26T01:33:35;8.37;;;7.07;;
20884;SDS011;10602;48.000;9.654;2023-06-26T01:36:03;8.80;;;7.27;;
20884;SDS011;10602;48.000;9.654;2023-06-26T01:38:31;10.00;;;7.97;;
20884;SDS011;10602;48.000;9.654;2023-06-26T01:41:00;8.83;;;7.20;;
20884;SDS011;10602;48.000;9.654;2023-06-26T01:51:43;9.30;;;7.70;;
20884;SDS011;10602;48.000;9.654;2023-06-26T01:54:30;11.13;;;7.70;;
20884;SDS011;10602;48.000;9.654;2023-06-26T01:56:59;9.37;;;7.67;;
20884;SDS011;10602;48.000;9.654;2023-06-26T01:59:28;8.47;;;7.10;;
20884;SDS011;10602;48.000;9.654;2023-06-26T02:02:00;8.80;;;7.10;;
20884;SDS011;10602;48.000;9.654;2023-06-26T02:04:28;8.53;;;7.20;;
20884;SDS011;10602;48.000;9.654;2023-06-26T02:06:55;9.83;;;7.50;;
20884;SDS011;10602;48.000;9.654;2023-06-26T02:09:23;8.93;;;7.23;;
20884;SDS011;10602;48.000;9.654;2023-06-26T02:11:50;11.33;;;7.60;;
20884;SDS011;10602;48.000;9.654;2023-06-26T02:14:18;9.20;;;7.83;;
20884;SDS011;10602;48.000;9.654;2023-06-26T02:16:45;8.80;;;7.73;;
20884;SDS011;10602;48.000;9.654;2023-06-26T02:19:13;11.03;;;7.90;;
20884;SDS011;10602;48.000;9.654;2023-06-26T02:21:42;10.10;;;8.20;;
20884;SDS011;10602;48.000;9.654;2023-06-26T02:24:09;9.83;;;7.20;;
20884;SDS011;10602;48.000;9.654;2023-06-26T02:26:37;9.13;;;7.87;;
20884;SDS011;10602;48.000;9.654;2023-06-26T02:29:04;8.70;;;7.33;;
20884;SDS011;10602;48.000;9.654;2023-06-26T02:31:32;11.07;;;8.20;;
20884;SDS011;10602;48.000;9.654;2023-06-26T02:33:59;9.30;;;7.97;;
20884;SDS011;10602;48.000;9.654;2023-06-26T02:36:27;12.97;;;7.97;;
20884;SDS011;10602;48.000;9.654;2023-06-26T02:38:56;9.80;;;8.30;;
20884;SDS011;10602;48.000;9.654;2023-06-26T02:41:25;9.23;;;7.97;;
20884;SDS011;10602;48.000;9.654;2023-06-26T02:43:52;10.00;;;8.13;;
20884;SDS011;10602;48.000;9.654;2023-06-26T02:46:20;8.70;;;7.30;;
20884;SDS011;10602;48.000;9.654;2023-06-26T02:48:49;9.33;;;7.27;;
20884;SDS011;10602;48.000;9.654;2023-06-26T02:51:18;8.90;;;7.70;;
20884;SDS011;10602;48.000;9.654;2023-06-26T02:53:45;9.70;;;7.73;;
20884;SDS011;10602;48.000;9.654;2023-06-26T02:56:13;8.00;;;7.13;;
20884;SDS011;10602;48.000;9.654;2023-06-26T02:58:42;9.07;;;7.63;;
20884;SDS011;10602;48.000;9.654;2023-06-26T03:01:09;8.70;;;7.30;;
20884;SDS011;10602;48.000;9.654;2023-06-26T03:03:37;8.60;;;7.53;;
20884;SDS011;10602;48.000;9.654;2023-06-26T03:06:06;10.30;;;8.20;;
20884;SDS011;10602;48.000;9.654;2023-06-26T03:08:36;11.23;;;8.03;;
20884;SDS011;10602;48.000;9.654;2023-06-26T03:11:08;11.10;;;7.77;;
20884;SDS011;10602;48.000;9.654;2023-06-26T03:13:36;8.60;;;7.40;;
20884;SDS011;10602;48.000;9.654;2023-06-26T03:16:04;9.53;;;7.37;;
20884;SDS011;10602;48.000;9.654;2023-06-26T03:18:32;9.40;;;8.03;;
20884;SDS011;10602;48.000;9.654;2023-06-26T03:20:59;10.03;;;7.80;;
20884;SDS011;10602;48.000;9.654;2023-06-26T03:23:27;11.70;;;8.17;;
20884;SDS011;10602;48.000;9.654;2023-06-26T03:25:54;10.57;;;8.17;;
20884;SDS011;10602;48.000;9.654;2023-06-26T03:28:22;10.97;;;8.40;;
20884;SDS011;10602;48.000;9.654;2023-06-26T03:30:49;10.73;;;7.90;;
20884;SDS011;10602;48.000;9.654;2023-06-26T03:33:17;10.43;;;8.10;;
20884;SDS011;10602;48.000;9.654;2023-06-26T03:35:45;10.60;;;7.90;;
20884;SDS011;10602;48.000;9.654;2023-06-26T03:38:12;10.80;;;7.80;;
20884;SDS011;10602;48.000;9.654;2023-06-26T03:40:40;11.03;;;8.77;;
20884;SDS011;10602;48.000;9.654;2023-06-26T03:43:07;12.13;;;9.37;;
20884;SDS011;10602;48.000;9.654;2023-06-26T03:45:35;10.20;;;7.93;;
20884;SDS011;10602;48.000;9.654;2023-06-26T03:48:02;10.73;;;7.90;;
20884;SDS011;10602;48.000;9.654;2023-06-26T03:50:30;8.90;;;7.80;;
20884;SDS011;10602;48.000;9.654;2023-06-26T03:52:58;10.20;;;8.20;;
20884;SDS011;10602;48.000;9.654;2023-06-26T03:55:25;8.93;;;7.67;;
20884;SDS011;10602;48.000;9.654;2023-06-26T03:57:54;10.27;;;8.10;;
20884;SDS011;10602;48.000;9.654;2023-06-26T04:00:21;11.00;;;8.10;;
20884;SDS011;10602;48.000;9.654;2023-06-26T04:02:49;9.50;;;8.07;;
20884;SDS011;10602;48.000;9.654;2023-06-26T04:05:17;11.00;;;8.40;;
20884;SDS011;10602;48.000;9.654;2023-06-26T04:07:44;12.77;;;8.17;;
20884;SDS011;10602;48.000;9.654;2023-06-26T04:10:12;10.27;;;8.90;;
20884;SDS011;10602;48.000;9.654;2023-06-26T04:12:39;9.97;;;8.30;;
20884;SDS011;10602;48.000;9.654;2023-06-26T04:15:07;10.43;;;8.13;;
20884;SDS011;10602;48.000;9.654;2023-06-26T04:17:35;10.63;;;8.60;;
20884;SDS011;10602;48.000;9.654;2023-06-26T04:20:03;9.67;;;8.40;;
20884;SDS011;10602;48.000;9.654;2023-06-26T04:22:32;10.37;;;8.20;;
20884;SDS011;10602;48.000;9.654;2023-06-26T04:25:01;13.00;;;10.03;;
20884;SDS011;10602;48.000;9.654;2023-06-26T04:27:30;12.90;;;9.37;;
20884;SDS011;10602;48.000;9.654;2023-06-26T04:29:57;11.23;;;9.43;;
20884;SDS011;10602;48.000;9.654;2023-06-26T04:32:25;10.60;;;8.33;;
20884;SDS011;10602;48.000;9.654;2023-06-26T04:34:59;10.43;;;8.93;;
20884;SDS011;10602;48.000;9.654;2023-06-26T04:37:26;12.13;;;9.30;;
20884;SDS011;10602;48.000;9.654;2023-06-26T04:39:54;11.50;;;8.97;;
20884;SDS011;10602;48.000;9.654;2023-06-26T04:42:21;15.23;;;9.30;;
20884;SDS011;10602;48.000;9.654;2023-06-26T04:44:49;9.77;;;8.40;;
20884;SDS011;10602;48.000;9.654;2023-06-26T04:47:16;9.87;;;8.60;;
20884;SDS011;10602;48.000;9.654;2023-06-26T04:49:44;10.87;;;8.57;;
20884;SDS011;10602;48.000;9.654;2023-06-26T04:52:14;10.53;;;9.33;;
20884;SDS011;10602;48.000;9.654;2023-06-26T04:54:42;9.87;;;8.80;;
20884;SDS011;10602;48.000;9.654;2023-06-26T04:57:09;10.60;;;9.50;;
20884;SDS011;10602;48.000;9.654;2023-06-26T04:59:37;10.40;;;9.27;;
20884;SDS011;10602;48.000;9.654;2023-06-26T05:02:05;10.40;;;9.17;;
20884;SDS011;10602;48.000;9.654;2023-06-26T05:04:33;12.63;;;9.87;;
20884;SDS011;10602;48.000;9.654;2023-06-26T05:07:02;13.27;;;9.67;;
20884;SDS011;10602;48.000;9.654;2023-06-26T05:09:32;11.57;;;10.27;;
20884;SDS011;10602;48.000;9.654;2023-06-26T05:11:59;10.53;;;9.43;;
20884;SDS011;10602;48.000;9.654;2023-06-26T05:14:28;12.10;;;9.63;;
20884;SDS011;10602;48.000;9.654;2023-06-26T05:16:56;12.93;;;9.53;;
20884;SDS011;10602;48.000;9.654;2023-06-26T05:19:23;12.60;;;9.50;;
20884;SDS011;10602;48.000;9.654;2023-06-26T05:21:51;11.73;;;9.40;;
20884;SDS011;10602;48.000;9.654;2023-06-26T05:24:19;10.07;;;8.97;;
20884;SDS011;10602;48.000;9.654;2023-06-26T05:26:49;11.53;;;9.00;;
20884;SDS011;10602;48.000;9.654;2023-06-26T05:29:17;11.70;;;9.70;;
20884;SDS011;10602;48.000;9.654;2023-06-26T05:31:45;12.80;;;10.37;;
20884;SDS011;10602;48.000;9.654;2023-06-26T05:34:15;16.67;;;9.73;;
20884;SDS011;10602;48.000;9.654;2023-06-26T05:36:46;10.13;;;8.90;;
20884;SDS011;10602;48.000;9.654;2023-06-26T05:39:16;11.87;;;9.50;;
20884;SDS011;10602;48.000;9.654;2023-06-26T05:41:44;11.47;;;9.43;;
20884;SDS011;10602;48.000;9.654;2023-06-26T05:44:12;10.80;;;9.67;;
20884;SDS011;10602;48.000;9.654;2023-06-26T05:46:40;10.30;;;9.20;;
20884;SDS011;10602;48.000;9.654;2023-06-26T05:49:07;13.57;;;9.03;;
20884;SDS011;10602;48.000;9.654;2023-06-26T05:51:35;10.77;;;9.17;;
20884;SDS011;10602;48.000;9.654;2023-06-26T05:54:03;10.73;;;9.40;;
20884;SDS011;10602;48.000;9.654;2023-06-26T05:56:31;10.40;;;8.70;;
20884;SDS011;10602;48.000;9.654;2023-06-26T05:58:59;10.40;;;9.30;;
20884;SDS011;10602;48.000;9.654;2023-06-26T06:01:28;9.50;;;8.50;;
20884;SDS011;10602;48.000;9.654;2023-06-26T06:03:57;10.53;;;9.23;;
20884;SDS011;10602;48.000;9.654;2023-06-26T06:06:25;10.20;;;8.60;;
20884;SDS011;10602;48.000;9.654;2023-06-26T06:08:55;10.17;;;9.17;;
20884;SDS011;10602;48.000;9.654;2023-06-26T06:11:23;10.33;;;8.90;;
20884;SDS011;10602;48.000;9.654;2023-06-26T06:13:50;12.50;;;8.43;;
20884;SDS011;10602;48.000;9.654;2023-06-26T06:16:18;10.57;;;9.37;;
20884;SDS011;10602;48.000;9.654;2023-06-26T06:18:46;10.33;;;8.17;;
20884;SDS011;10602;48.000;9.654;2023-06-26T06:21:13;10.80;;;8.37;;
20884;SDS011;10602;48.000;9.654;2023-06-26T06:23:41;9.17;;;8.27;;
20884;SDS011;10602;48.000;9.654;2023-06-26T06:26:08;9.80;;;8.20;;
20884;SDS011;10602;48.000;9.654;2023-06-26T06:28:39;9.30;;;8.33;;
20884;SDS011;10602;48.000;9.654;2023-06-26T06:31:09;12.03;;;8.47;;
20884;SDS011;10602;48.000;9.654;2023-06-26T06:33:37;9.97;;;8.00;;
20884;SDS011;10602;48.000;9.654;2023-06-26T06:36:10;10.27;;;8.53;;
20884;SDS011;10602;48.000;9.654;2023-06-26T06:38:43;9.47;;;8.50;;
20884;SDS011;10602;48.000;9.654;2023-06-26T06:41:11;9.37;;;8.37;;
20884;SDS011;10602;48.000;9.654;2023-06-26T06:43:39;9.83;;;8.50;;
20884;SDS011;10602;48.000;9.654;2023-06-26T06:46:08;9.40;;;8.40;;
20884;SDS011;10602;48.000;9.654;2023-06-26T06:48:37;9.77;;;8.70;;
20884;SDS011;10602;48.000;9.654;2023-06-26T06:51:08;8.93;;;8.07;;
20884;SDS011;10602;48.000;9.654;2023-06-26T06:53:35;10.17;;;8.53;;
20884;SDS011;10602;48.000;9.654;2023-06-26T06:56:03;9.37;;;7.90;;
20884;SDS011;10602;48.000;9.654;2023-06-26T06:58:31;9.83;;;8.53;;
20884;SDS011;10602;48.000;9.654;2023-06-26T07:00:59;9.53;;;8.47;;
20884;SDS011;10602;48.000;9.654;2023-06-26T07:03:28;8.60;;;7.70;;
20884;SDS011;10602;48.000;9.654;2023-06-26T07:05:56;9.37;;;8.40;;
20884;SDS011;10602;48.000;9.654;2023-06-26T07:08:27;9.17;;;8.20;;
20884;SDS011;10602;48.000;9.654;2023-06-26T07:11:02;9.33;;;8.27;;
20884;SDS011;10602;48.000;9.654;2023-06-26T07:13:33;9.60;;;8.57;;
20884;SDS011;10602;48.000;9.654;2023-06-26T07:16:01;9.10;;;8.20;;
20884;SDS011;10602;48.000;9.654;2023-06-26T07:18:30;9.43;;;8.43;;
20884;SDS011;10602;48.000;9.654;2023-06-26T07:20:58;10.17;;;8.33;;
20884;SDS011;10602;48.000;9.654;2023-06-26T07:23:34;9.23;;;7.83;;
20884;SDS011;10602;48.000;9.654;2023-06-26T07:25:59;9.00;;;8.10;;
20884;SDS011;10602;48.000;9.654;2023-06-26T07:28:26;9.20;;;8.30;;
20884;SDS011;10602;48.000;9.654;2023-06-26T07:30:54;8.33;;;7.23;;
20884;SDS011;10602;48.000;9.654;2023-06-26T07:33:28;9.60;;;8.50;;
20884;SDS011;10602;48.000;9.654;2023-06-26T07:35:54;9.53;;;8.47;;
20884;SDS011;10602;48.000;9.654;2023-06-26T07:38:22;9.23;;;8.33;;
20884;SDS011;10602;48.000;9.654;2023-06-26T07:40:49;9.40;;;8.40;;
20884;SDS011;10602;48.000;9.654;2023-06-26T07:43:17;9.00;;;8.10;;
20884;SDS011;10602;48.000;9.654;2023-06-26T07:45:45;8.13;;;7.33;;
20884;SDS011;10602;48.000;9.654;2023-06-26T07:48:15;8.00;;;6.70;;
20884;SDS011;10602;48.000;9.654;2023-06-26T07:51:04;6.60;;;6.00;;
20884;SDS011;10602;48.000;9.654;2023-06-26T07:53:27;6.40;;;5.80;;
20884;SDS011;10602;48.000;9.654;2023-06-26T07:55:55;6.90;;;6.20;;
20884;SDS011;10602;48.000;9.654;2023-06-26T07:58:44;7.03;;;6.33;;
20884;SDS011;10602;48.000;9.654;2023-06-26T08:01:00;6.83;;;5.47;;
20884;SDS011;10602;48.000;9.654;2023-06-26T08:03:27;6.13;;;5.30;;
20884;SDS011;10602;48.000;9.654;2023-06-26T08:05:55;7.43;;;6.10;;
20884;SDS011;10602;48.000;9.654;2023-06-26T08:08:28;6.17;;;5.57;;
20884;SDS011;10602;48.000;9.654;2023-06-26T08:10:55;6.80;;;6.03;;
20884;SDS011;10602;48.000;9.654;2023-06-26T08:13:25;6.73;;;5.53;;
20884;SDS011;10602;48.000;9.654;2023-06-26T08:15:56;6.33;;;5.73;;
20884;SDS011;10602;48.000;9.654;2023-06-26T08:18:30;6.70;;;5.97;;
20884;SDS011;10602;48.000;9.654;2023-06-26T08:20:57;6.67;;;6.00;;
20884;SDS011;10602;48.000;9.654;2023-06-26T08:23:26;7.17;;;5.77;;
20884;SDS011;10602;48.000;9.654;2023-06-26T08:25:54;6.50;;;5.90;;
20884;SDS011;10602;48.000;9.654;2023-06-26T08:28:23;6.23;;;5.63;;
20884;SDS011;10602;48.000;9.654;2023-06-26T08:30:51;6.37;;;5.67;;
20884;SDS011;10602;48.000;9.654;2023-06-26T08:33:18;8.00;;;6.10;;
20884;SDS011;10602;48.000;9.654;2023-06-26T08:35:46;7.57;;;6.07;;
20884;SDS011;10602;48.000;9.654;2023-06-26T08:38:14;6.27;;;5.53;;
20884;SDS011;10602;48.000;9.654;2023-06-26T08:40:41;6.37;;;5.60;;
20884;SDS011;10602;48.000;9.654;2023-06-26T08:43:09;6.17;;;5.53;;
20884;SDS011;10602;48.000;9.654;2023-06-26T08:45:36;6.27;;;5.67;;
20884;SDS011;10602;48.000;9.654;2023-06-26T08:48:05;21.03;;;7.63;;
20884;SDS011;10602;48.000;9.654;2023-06-26T08:50:36;8.87;;;5.80;;
20884;SDS011;10602;48.000;9.654;2023-06-26T08:55:57;6.00;;;5.30;;
20884;SDS011;10602;48.000;9.654;2023-06-26T08:58:27;6.40;;;5.43;;
20884;SDS011;10602;48.000;9.654;2023-06-26T09:00:55;6.10;;;5.50;;
20884;SDS011;10602;48.000;9.654;2023-06-26T09:03:23;6.13;;;5.53;;
20884;SDS011;10602;48.000;9.654;2023-06-26T09:05:51;6.00;;;5.40;;
20884;SDS011;10602;48.000;9.654;2023-06-26T09:08:19;6.47;;;5.73;;
20884;SDS011;10602;48.000;9.654;2023-06-26T09:10:47;5.63;;;5.13;;
20884;SDS011;10602;48.000;9.654;2023-06-26T09:13:14;5.77;;;5.20;;
20884;SDS011;10602;48.000;9.654;2023-06-26T09:15:42;6.23;;;5.63;;
20884;SDS011;10602;48.000;9.654;2023-06-26T09:18:11;6.07;;;5.47;;
20884;SDS011;10602;48.000;9.654;2023-06-26T09:20:39;7.27;;;5.53;;
20884;SDS011;10602;48.000;9.654;2023-06-26T09:23:07;7.50;;;5.80;;
20884;SDS011;10602;48.000;9.654;2023-06-26T09:25:38;6.23;;;5.63;;
20884;SDS011;10602;48.000;9.654;2023-06-26T09:28:08;6.30;;;5.70;;
20884;SDS011;10602;48.000;9.654;2023-06-26T09:30:44;6.17;;;5.63;;
20884;SDS011;10602;48.000;9.654;2023-06-26T09:33:15;6.83;;;5.90;;
20884;SDS011;10602;48.000;9.654;2023-06-26T09:35:49;6.30;;;5.67;;
20884;SDS011;10602;48.000;9.654;2023-06-26T09:38:20;9.50;;;6.10;;
20884;SDS011;10602;48.000;9.654;2023-06-26T09:40:47;7.63;;;6.20;;
20884;SDS011;10602;48.000;9.654;2023-06-26T09:43:15;6.53;;;5.93;;
20884;SDS011;10602;48.000;9.654;2023-06-26T09:45:44;6.60;;;5.90;;
20884;SDS011;10602;48.000;9.654;2023-06-26T09:50:51;9.17;;;6.23;;
20884;SDS011;10602;48.000;9.654;2023-06-26T09:53:25;8.87;;;6.27;;
20884;SDS011;10602;48.000;9.654;2023-06-26T09:55:49;7.57;;;6.03;;
20884;SDS011;10602;48.000;9.654;2023-06-26T09:58:16;6.37;;;5.20;;
20884;SDS011;10602;48.000;9.654;2023-06-26T10:00:46;6.80;;;6.00;;
20884;SDS011;10602;48.000;9.654;2023-06-26T10:03:26;5.70;;;5.20;;
20884;SDS011;10602;48.000;9.654;2023-06-26T10:06:23;6.07;;;5.47;;
20884;SDS011;10602;48.000;9.654;2023-06-26T10:14:59;6.30;;;5.70;;
20884;SDS011;10602;48.000;9.654;2023-06-26T10:17:42;6.63;;;5.60;;
20884;SDS011;10602;48.000;9.654;2023-06-26T10:23:12;5.07;;;4.60;;
20884;SDS011;10602;48.000;9.654;2023-06-26T11:14:48;8.20;;;5.60;;
20884;SDS011;10602;48.000;9.654;2023-06-26T11:20:18;5.90;;;5.30;;
20884;SDS011;10602;48.000;9.654;2023-06-26T11:30:46;5.80;;;5.30;;
20884;SDS011;10602;48.000;9.654;2023-06-26T11:33:14;6.53;;;5.63;;
20884;SDS011;10602;48.000;9.654;2023-06-26T11:36:07;7.00;;;6.40;;
20884;SDS011;10602;48.000;9.654;2023-06-26T11:38:39;9.60;;;6.20;;
20884;SDS011;10602;48.000;9.654;2023-06-26T11:41:06;6.37;;;5.77;;
20884;SDS011;10602;48.000;9.654;2023-06-26T11:43:35;6.73;;;6.03;;
20884;SDS011;10602;48.000;9.654;2023-06-26T11:46:02;6.70;;;6.03;;
20884;SDS011;10602;48.000;9.654;2023-06-26T11:48:30;9.90;;;6.30;;
20884;SDS011;10602;48.000;9.654;2023-06-26T11:50:58;7.20;;;5.90;;
20884;SDS011;10602;48.000;9.654;2023-06-26T11:53:25;6.60;;;6.00;;
20884;SDS011;10602;48.000;9.654;2023-06-26T11:55:53;6.67;;;6.03;;
20884;SDS011;10602;48.000;9.654;2023-06-26T11:58:22;6.93;;;5.97;;
20884;SDS011;10602;48.000;9.654;2023-06-26T12:00:50;6.40;;;5.80;;
20884;SDS011;10602;48.000;9.654;2023-06-26T12:03:18;10.00;;;6.10;;
20884;SDS011;10602;48.000;9.654;2023-06-26T12:05:47;6.50;;;5.73;;
20884;SDS011;10602;48.000;9.654;2023-06-26T12:08:17;6.33;;;5.73;;
20884;SDS011;10602;48.000;9.654;2023-06-26T12:10:45;7.10;;;6.40;;
20884;SDS011;10602;48.000;9.654;2023-06-26T18:15:33;10.93;;;4.53;;
20884;SDS011;10602;48.000;9.654;2023-06-26T18:18:04;7.47;;;4.37;;
20884;SDS011;10602;48.000;9.654;2023-06-26T18:20:31;5.50;;;4.13;;
20884;SDS011;10602;48.000;9.654;2023-06-26T18:23:05;6.70;;;4.33;;
20884;SDS011;10602;48.000;9.654;2023-06-26T18:25:34;6.03;;;4.00;;
20884;SDS011;10602;48.000;9.654;2023-06-26T18:28:04;4.87;;;4.37;;
20884;SDS011;10602;48.000;9.654;2023-06-26T18:30:32;7.40;;;4.00;;
20884;SDS011;10602;48.000;9.654;2023-06-26T18:33:01;4.43;;;3.73;;
20884;SDS011;10602;48.000;9.654;2023-06-26T18:35:29;4.30;;;3.90;;
20884;SDS011;10602;48.000;9.654;2023-06-26T18:37:56;8.10;;;4.40;;
20884;SDS011;10602;48.000;9.654;2023-06-26T18:40:25;5.40;;;4.10;;
20884;SDS011;10602;48.000;9.654;2023-06-26T18:42:53;6.20;;;3.90;;
20884;SDS011;10602;48.000;9.654;2023-06-26T18:45:22;6.13;;;4.37;;
20884;SDS011;10602;48.000;9.654;2023-06-26T18:47:49;6.33;;;4.23;;
20884;SDS011;10602;48.000;9.654;2023-06-26T18:50:18;5.90;;;4.20;;
20884;SDS011;10602;48.000;9.654;2023-06-26T18:52:47;5.50;;;4.43;;
20884;SDS011;10602;48.000;9.654;2023-06-26T18:55:14;5.60;;;4.80;;
20884;SDS011;10602;48.000;9.654;2023-06-26T18:57:43;5.53;;;4.40;;
20884;SDS011;10602;48.000;9.654;2023-06-26T19:00:10;6.10;;;4.93;;
20884;SDS011;10602;48.000;9.654;2023-06-26T19:02:39;7.53;;;4.90;;
20884;SDS011;10602;48.000;9.654;2023-06-26T19:05:07;8.47;;;5.00;;
20884;SDS011;10602;48.000;9.654;2023-06-26T19:07:35;6.60;;;4.93;;
20884;SDS011;10602;48.000;9.654;2023-06-26T19:10:02;6.40;;;5.03;;
20884;SDS011;10602;48.000;9.654;2023-06-26T19:12:30;6.97;;;4.60;;
20884;SDS011;10602;48.000;9.654;2023-06-26T19:14:57;7.97;;;4.90;;
20884;SDS011;10602;48.000;9.654;2023-06-26T19:17:25;6.80;;;5.00;;
20884;SDS011;10602;48.000;9.654;2023-06-26T19:19:53;4.87;;;4.37;;
20884;SDS011;10602;48.000;9.654;2023-06-26T19:22:20;8.87;;;4.53;;
20884;SDS011;10602;48.000;9.654;2023-06-26T19:24:48;5.77;;;4.47;;
20884;SDS011;10602;48.000;9.654;2023-06-26T19:27:15;5.00;;;4.37;;
20884;SDS011;10602;48.000;9.654;2023-06-26T19:29:43;6.73;;;4.73;;
20884;SDS011;10602;48.000;9.654;2023-06-26T19:32:10;6.60;;;4.47;;
20884;SDS011;10602;48.000;9.654;2023-06-26T19:34:38;6.17;;;4.30;;
20884;SDS011;10602;48.000;9.654;2023-06-26T19:37:05;6.30;;;4.83;;
20884;SDS011;10602;48.000;9.654;2023-06-26T19:39:33;5.87;;;3.80;;
20884;SDS011;10602;48.000;9.654;2023-06-26T19:42:01;3.73;;;3.23;;
20884;SDS011;10602;48.000;9.654;2023-06-26T19:44:29;4.03;;;3.23;;
20884;SDS011;10602;48.000;9.654;2023-06-26T19:46:57;6.27;;;3.40;;
20884;SDS011;10602;48.000;9.654;2023-06-26T19:49:26;6.80;;;3.70;;
20884;SDS011;10602;48.000;9.654;2023-06-26T19:51:53;6.30;;;3.90;;
20884;SDS011;10602;48.000;9.654;2023-06-26T19:54:21;5.67;;;3.70;;
20884;SDS011;10602;48.000;9.654;2023-06-26T19:56:52;6.43;;;3.40;;
20884;SDS011;10602;48.000;9.654;2023-06-26T19:59:22;3.83;;;3.20;;
20884;SDS011;10602;48.000;9.654;2023-06-26T20:01:51;6.00;;;3.30;;
20884;SDS011;10602;48.000;9.654;2023-06-26T20:04:22;6.10;;;3.33;;
20884;SDS011;10602;48.000;9.654;2023-06-26T20:06:51;6.33;;;3.33;;
20884;SDS011;10602;48.000;9.654;2023-06-26T20:09:19;4.63;;;3.70;;
20884;SDS011;10602;48.000;9.654;2023-06-26T20:11:50;4.23;;;3.50;;
20884;SDS011;10602;48.000;9.654;2023-06-26T20:14:17;4.37;;;3.30;;
20884;SDS011;10602;48.000;9.654;2023-06-26T20:16:45;5.73;;;3.53;;
20884;SDS011;10602;48.000;9.654;2023-06-26T20:19:15;3.90;;;2.97;;
20884;SDS011;10602;48.000;9.654;2023-06-26T20:21:48;5.33;;;3.10;;
20884;SDS011;10602;48.000;9.654;2023-06-26T20:24:27;6.03;;;3.73;;
20884;SDS011;10602;48.000;9.654;2023-06-26T20:29:37;4.07;;;3.23;;
20884;SDS011;10602;48.000;9.654;2023-06-26T20:32:06;4.43;;;3.10;;
20884;SDS011;10602;48.000;9.654;2023-06-26T20:34:37;4.63;;;3.20;;
20884;SDS011;10602;48.000;9.654;2023-06-26T20:37:05;4.53;;;3.00;;
20884;SDS011;10602;48.000;9.654;2023-06-26T20:39:35;8.20;;;3.53;;
20884;SDS011;10602;48.000;9.654;2023-06-26T20:42:03;4.97;;;3.00;;
20884;SDS011;10602;48.000;9.654;2023-06-26T20:44:32;5.17;;;3.20;;
20884;SDS011;10602;48.000;9.654;2023-06-26T20:47:00;3.90;;;2.80;;
20884;SDS011;10602;48.000;9.654;2023-06-26T20:49:29;5.87;;;2.97;;
20884;SDS011;10602;48.000;9.654;2023-06-26T20:51:57;4.23;;;2.60;;
20884;SDS011;10602;48.000;9.654;2023-06-26T20:54:30;4.00;;;2.90;;
20884;SDS011;10602;48.000;9.654;2023-06-26T20:56:59;3.27;;;2.83;;
20884;SDS011;10602;48.000;9.654;2023-06-26T20:59:30;5.90;;;2.90;;
20884;SDS011;10602;48.000;9.654;2023-06-26T21:01:57;4.53;;;2.97;;
20884;SDS011;10602;48.000;9.654;2023-06-26T21:04:25;4.73;;;2.80;;
20884;SDS011;10602;48.000;9.654;2023-06-26T21:06:52;5.33;;;3.10;;
20884;SDS011;10602;48.000;9.654;2023-06-26T21:09:20;4.00;;;2.60;;
20884;SDS011;10602;48.000;9.654;2023-06-26T21:11:47;7.13;;;3.00;;
20884;SDS011;10602;48.000;9.654;2023-06-26T21:14:18;4.07;;;2.50;;
20884;SDS011;10602;48.000;9.654;2023-06-26T21:16:45;3.90;;;2.53;;
20884;SDS011;10602;48.000;9.654;2023-06-26T21:19:13;5.30;;;2.77;;
20884;SDS011;10602;48.000;9.654;2023-06-26T21:21:40;3.50;;;2.80;;
20884;SDS011;10602;48.000;9.654;2023-06-26T21:24:08;4.17;;;2.80;;
20884;SDS011;10602;48.000;9.654;2023-06-26T21:26:36;3.60;;;3.00;;
20884;SDS011;10602;48.000;9.654;2023-06-26T21:29:04;4.03;;;2.90;;
20884;SDS011;10602;48.000;9.654;2023-06-26T21:31:32;4.50;;;3.10;;
20884;SDS011;10602;48.000;9.654;2023-06-26T21:34:00;3.97;;;2.50;;
20884;SDS011;10602;48.000;9.654;2023-06-26T21:36:27;4.40;;;2.60;;
20884;SDS011;10602;48.000;9.654;2023-06-26T21:38:55;3.37;;;2.60;;
20884;SDS011;10602;48.000;9.654;2023-06-26T21:41:24;3.40;;;2.40;;
20884;SDS011;10602;48.000;9.654;2023-06-26T21:43:52;2.90;;;2.27;;
20884;SDS011;10602;48.000;9.654;2023-06-26T21:46:19;8.30;;;2.33;;
20884;SDS011;10602;48.000;9.654;2023-06-26T21:48:50;3.20;;;2.43;;
20884;SDS011;10602;48.000;9.654;2023-06-26T21:51:17;4.00;;;2.27;;
20884;SDS011;10602;48.000;9.654;2023-06-26T21:53:47;4.67;;;2.40;;
20884;SDS011;10602;48.000;9.654;2023-06-26T21:56:14;4.17;;;2.40;;
20884;SDS011;10602;48.000;9.654;2023-06-26T21:58:50;3.97;;;2.20;;
20884;SDS011;10602;48.000;9.654;2023-06-26T22:01:23;3.57;;;2.47;;
20884;SDS011;10602;48.000;9.654;2023-06-26T22:03:50;3.40;;;2.30;;
20884;SDS011;10602;48.000;9.654;2023-06-26T22:06:17;4.27;;;2.47;;
20884;SDS011;10602;48.000;9.654;2023-06-26T22:08:45;3.67;;;2.30;;
20884;SDS011;10602;48.000;9.654;2023-06-26T22:11:21;3.77;;;2.60;;
20884;SDS011;10602;48.000;9.654;2023-06-26T22:13:49;3.67;;;2.20;;
20884;SDS011;10602;48.000;9.654;2023-06-26T22:16:17;4.23;;;2.40;;
20884;SDS011;10602;48.000;9.654;2023-06-26T22:18:44;7.93;;;2.13;;
20884;SDS011;10602;48.000;9.654;2023-06-26T22:21:12;3.33;;;2.50;;
20884;SDS011;10602;48.000;9.654;2023-06-26T22:23:39;3.83;;;2.40;;